Time;durP1;ratioP1;P1;durP2;ratioP2;P2;SDS_P1;SDS_P2;PMS_P1;PMS_P2;Temp;Humidity;BMP_temperature;BMP_pressure;BME280_temperature;BME280_humidity;BME280_pressure;Samples;Min_cycle;Max_cycle;Signal;HPM_P1;HPM_P2
2022/02/09 00:02:02;;;;;;;;;;;;;;;;;;2192230;59;16378;-68
2022/02/09 00:04:41;;;;;;;;;;;;;;;;;;2188681;59;43928;-68
2022/02/09 00:07:21;;;;;;;;;;;;;;;;;;2193147;64;27091;-68
2022/02/09 00:09:54;;;;;;;;;;;;;;;;;;2190441;61;22392;-69
2022/02/09 00:12:33;;;;;;;;;;;;;;;;;;2190769;59;16426;-68
2022/02/09 00:15:19;;;;;;;;;;;;;;;;;;2188629;59;18705;-69
2022/02/09 00:18:00;;;;;;;;;;;;;;;;;;2189402;59;27515;-68
2022/02/09 00:21:03;;;;;;;;;;;;;;;;;;2189241;59;16996;-68
2022/02/09 00:32:47;;;;;;;;;;;;;;;;;;2193064;59;18461;-69
2022/02/09 00:38:37;;;;;;;;;;;;;;;;;;2196835;59;17568;-68
2022/02/09 00:41:25;;;;;;;;;;;;;;;;;;2192455;59;16023;-68
2022/02/09 01:39:06;;;;;;;;;;;;;;;;;;2179456;59;12943;-68
2022/02/09 01:56:06;;;;;;;;;;;;;;;;;;2197388;60;14094;-68
2022/02/09 01:58:39;;;;;;;;;;;;;;;;;;2203491;59;23106;-68
2022/02/09 02:01:12;;;;;;;;;;;;;;;;;;2196054;59;17516;-68
2022/02/09 02:03:46;;;;;;;;;;;;;;;;;;2197903;59;28557;-68
2022/02/09 02:06:20;;;;;;;;;;;;;;;;;;2196815;59;59093;-67
2022/02/09 02:08:54;;;;;;;;;;;;;;;;;;2196600;59;24837;-68
2022/02/09 02:11:34;;;;;;;;;;;;;;;;;;2194838;59;40227;-68
2022/02/09 02:14:19;;;;;;;;;;;;;;;;;;2195852;59;19684;-68
2022/02/09 02:16:57;;;;;;;;;;;;;;;;;;2194415;59;15876;-68
2022/02/09 02:19:37;;;;;;;;;;;;;;;;;;2194925;59;17953;-68
2022/02/09 02:22:30;;;;;;;;;;;;;;;;;;2196858;59;17729;-68
2022/02/09 02:28:16;;;;;;;;;;;;;;;;;;2196011;59;35376;-68
2022/02/09 02:34:11;;;;;;;;;;;;;;;;;;2218667;58;1821;-70
2022/02/09 02:40:03;;;;;;;;;;;;;;;;;;2213699;59;1736;-69
2022/02/09 02:57:19;;;;;;;;;;;;;;;;;;2213308;58;2086;-69
2022/02/09 03:08:41;;;;;;;;;;;;;;;;;;2212745;66;1647;-69
2022/02/09 03:14:09;;;;;;;;;;;;;;;;;;2215553;59;1739;-69
2022/02/09 03:16:48;;;;;;;;;;;;;;;;;;2216056;59;2574;-69
2022/02/09 03:19:41;;;;;;;;;;;;;;;;;;2215882;58;2661;-69
2022/02/09 03:22:21;;;;;;;;;;;;;;;;;;2216161;66;2105;-69
2022/02/09 03:25:36;;;;;;;;;;;;;;;;;;2214783;59;2040;-68
2022/02/09 03:31:16;;;;;;;;;;;;;;;;;;2215687;59;1823;-69
2022/02/09 03:48:11;;;;;;;;;;;;;;;;;;2206690;66;1605;-70
2022/02/09 03:51:12;;;;;;;;;;;;;;;;;;2207445;60;1920;-69
2022/02/09 03:54:09;;;;;;;;;;;;;;;;;;2206580;59;1934;-69
2022/02/09 03:59:34;;;;;;;;;;;;;;;;;;2205005;59;1922;-69
2022/02/09 04:02:08;;;;;;;;;;;;;;;;;;2206418;67;1108;-68
2022/02/09 04:04:41;;;;;;;;;;;;;;;;;;2205236;59;1903;-69
2022/02/09 04:07:14;;;;;;;;;;;;;;;;;;2205318;67;2296;-69
2022/02/09 04:09:51;;;;;;;;;;;;;;;;;;2205330;59;1737;-69
2022/02/09 04:12:34;;;;;;;;;;;;;;;;;;2206227;59;1928;-69
2022/02/09 04:15:23;;;;;;;;;;;;;;;;;;2203591;59;1864;-69
2022/02/09 04:18:12;;;;;;;;;;;;;;;;;;2205325;59;2349;-69
2022/02/09 04:37:57;;;;;;;;;;;;;;;;;;2198261;59;1790;-69
2022/02/09 04:41:09;;;;;;;;;;;;;;;;;;2205270;59;1730;-69
2022/02/09 04:43:43;;;;;;;;;;;;;;;;;;2205457;59;1971;-69
2022/02/09 04:46:49;;;;;;;;;;;;;;;;;;2207020;59;1782;-69
2022/02/09 04:49:42;;;;;;;;;;;;;;;;;;2205215;59;2033;-69
2022/02/09 04:52:25;;;;;;;;;;;;;;;;;;2202021;67;2004;-69
2022/02/09 04:55:09;;;;;;;;;;;;;;;;;;2204483;59;1961;-69
2022/02/09 04:57:47;;;;;;;;;;;;;;;;;;2204448;59;1937;-69
2022/02/09 05:00:32;;;;;;;;;;;;;;;;;;2205161;59;1772;-69
2022/02/09 05:03:41;;;;;;;;;;;;;;;;;;2206227;59;1955;-69
2022/02/09 05:17:59;;;;;;;;;;;;;;;;;;2204836;59;2122;-69
2022/02/09 05:23:39;;;;;;;;;;;;;;;;;;2204255;59;1887;-68
2022/02/09 05:26:22;;;;;;;;;;;;;;;;;;2204125;59;2142;-69
2022/02/09 05:28:55;;;;;;;;;;;;;;;;;;2205346;59;1813;-69
2022/02/09 05:31:28;;;;;;;;;;;;;;;;;;2207151;59;1814;-69
2022/02/09 05:34:01;;;;;;;;;;;;;;;;;;2205128;59;1924;-69
2022/02/09 05:36:35;;;;;;;;;;;;;;;;;;2205344;67;1655;-69
2022/02/09 05:39:12;;;;;;;;;;;;;;;;;;2205031;59;2113;-69
2022/02/09 05:41:47;;;;;;;;;;;;;;;;;;2204870;59;1842;-69
2022/02/09 05:44:20;;;;;;;;;;;;;;;;;;2203746;59;1773;-69
2022/02/09 05:49:45;;;;;;;;;;;;;;;;;;2206456;59;1602;-69
2022/02/09 05:52:28;;;;;;;;;;;;;;;;;;2205546;59;1990;-69
2022/02/09 05:57:55;;;;;;;;;;;;;;;;;;2203263;59;2177;-69
2022/02/09 06:00:28;;;;;;;;;;;;;;;;;;2205154;67;2235;-69
2022/02/09 06:03:01;;;;;;;;;;;;;;;;;;2202619;66;1049;-68
2022/02/09 06:05:35;;;;;;;;;;;;;;;;;;2203378;59;1840;-68
2022/02/09 06:08:08;;;;;;;;;;;;;;;;;;2202341;59;1587;-69
2022/02/09 06:10:50;;;;;;;;;;;;;;;;;;2205238;59;1805;-68
2022/02/09 06:13:34;;;;;;;;;;;;;;;;;;2205846;59;1977;-68
2022/02/09 06:19:38;;;;;;;;;;;;;;;;;;2204107;59;2126;-68
2022/02/09 06:21:55;;;;;;;;;;;;;;;;;;2206408;59;2474;-69
2022/02/09 06:24:29;;;;;;;;;;;;;;;;;;2205318;59;1273;-69
2022/02/09 06:27:05;;;;;;;;;;;;;;;;;;2207984;66;1249;-68
2022/02/09 06:29:43;;;;;;;;;;;;;;;;;;2206102;67;1267;-68
2022/02/09 06:32:17;;;;;;;;;;;;;;;;;;2204165;58;2256;-68
2022/02/09 06:34:51;;;;;;;;;;;;;;;;;;2204703;58;1224;-69
2022/02/09 06:37:34;;;;;;;;;;;;;;;;;;2205464;59;1692;-68
2022/02/09 06:40:08;;;;;;;;;;;;;;;;;;2206487;59;1135;-69
2022/02/09 06:42:45;;;;;;;;;;;;;;;;;;2205662;67;1176;-69
2022/02/09 06:45:21;;;;;;;;;;;;;;;;;;2205216;67;1049;-69
2022/02/09 06:47:54;;;;;;;;;;;;;;;;;;2207456;59;1254;-69
2022/02/09 06:50:34;;;;;;;;;;;;;;;;;;2204920;59;1359;-69
2022/02/09 06:53:15;;;;;;;;;;;;;;;;;;2204619;67;1971;-69
2022/02/09 06:55:52;;;;;;;;;;;;;;;;;;2205872;67;1069;-69
2022/02/09 06:58:57;;;;;;;;;;;;;;;;;;2206322;59;1771;-69
2022/02/09 07:01:31;;;;;;;;;;;;;;;;;;2202328;66;1255;-69
2022/02/09 07:04:04;;;;;;;;;;;;;;;;;;2206600;59;1274;-69
2022/02/09 07:06:37;;;;;;;;;;;;;;;;;;2206302;59;1245;-69
2022/02/09 07:09:10;;;;;;;;;;;;;;;;;;2209876;66;1049;-69
2022/02/09 07:11:43;;;;;;;;;;;;;;;;;;2205670;67;1450;-69
2022/02/09 07:14:23;;;;;;;;;;;;;;;;;;2207103;66;2074;-69
2022/02/09 07:16:57;;;;;;;;;;;;;;;;;;2206261;59;1776;-69
2022/02/09 07:19:32;;;;;;;;;;;;;;;;;;2212024;54;3631;-68
2022/02/09 07:22:06;;;;;;;;;;;;;;;;;;2212955;59;1856;-68
2022/02/09 07:24:39;;;;;;;;;;;;;;;;;;2213307;59;1214;-68
2022/02/09 07:27:38;;;;;;;;;;;;;;;;;;2216025;59;1161;-69
2022/02/09 07:30:14;;;;;;;;;;;;;;;;;;2209904;66;1086;-67
2022/02/09 07:32:48;;;;;;;;;;;;;;;;;;2210848;67;1986;-67
2022/02/09 07:35:21;;;;;;;;;;;;;;;;;;2210943;59;1356;-68
2022/02/09 07:37:54;;;;;;;;;;;;;;;;;;2210402;59;1754;-68
2022/02/09 07:40:27;;;;;;;;;;;;;;;;;;2210158;59;1426;-68
2022/02/09 07:43:08;;;;;;;;;;;;;;;;;;2210474;59;1820;-68
2022/02/09 07:46:03;;;;;;;;;;;;;;;;;;2210405;67;1117;-68
2022/02/09 07:48:53;;;;;;;;;;;;;;;;;;2210522;59;1916;-68
2022/02/09 07:51:54;;;;;;;;;;;;;;;;;;2210472;59;1281;-68
2022/02/09 07:54:28;;;;;;;;;;;;;;;;;;2210573;67;1939;-68
2022/02/09 07:57:01;;;;;;;;;;;;;;;;;;2209867;59;1105;-68
2022/02/09 07:59:34;;;;;;;;;;;;;;;;;;2209947;59;1606;-68
2022/02/09 08:02:10;;;;;;;;;;;;;;;;;;2210407;67;1141;-69
2022/02/09 08:04:43;;;;;;;;;;;;;;;;;;2210309;59;1129;-69
2022/02/09 08:07:16;;;;;;;;;;;;;;;;;;2210587;67;1089;-68
2022/02/09 08:09:49;;;;;;;;;;;;;;;;;;2210117;67;1184;-68
2022/02/09 08:12:52;;;;;;;;;;;;;;;;;;2210423;67;1094;-68
2022/02/09 08:24:52;;;;;;;;;;;;;;;;;;2210240;59;1334;-68
2022/02/09 08:27:35;;;;;;;;;;;;;;;;;;2210538;67;1730;-68
2022/02/09 08:30:20;;;;;;;;;;;;;;;;;;2210368;59;1152;-69
2022/02/09 08:33:03;;;;;;;;;;;;;;;;;;2210547;67;1990;-69
2022/02/09 08:35:39;;;;;;;;;;;;;;;;;;2209733;67;1110;-68
2022/02/09 08:38:12;;;;;;;;;;;;;;;;;;2210058;59;1737;-68
2022/02/09 08:40:47;;;;;;;;;;;;;;;;;;2210039;59;1234;-68
2022/02/09 08:43:20;;;;;;;;;;;;;;;;;;2210051;67;1114;-69
2022/02/09 08:45:53;;;;;;;;;;;;;;;;;;2210486;59;1082;-69
2022/02/09 08:48:27;;;;;;;;;;;;;;;;;;2210768;59;1490;-69
2022/02/09 08:51:03;;;;;;;;;;;;;;;;;;2210123;59;1248;-69
2022/02/09 08:53:36;;;;;;;;;;;;;;;;;;2210474;59;1937;-69
2022/02/09 08:56:10;;;;;;;;;;;;;;;;;;2210726;67;1122;-68
2022/02/09 08:58:44;;;;;;;;;;;;;;;;;;2208360;59;1429;-69
2022/02/09 09:01:32;;;;;;;;;;;;;;;;;;2210327;59;1137;-68
2022/02/09 09:04:14;;;;;;;;;;;;;;;;;;2210059;67;1075;-68
2022/02/09 09:06:54;;;;;;;;;;;;;;;;;;2210068;59;1076;-69
2022/02/09 09:09:41;;;;;;;;;;;;;;;;;;2209462;59;1772;-69
2022/02/09 10:03:34;;;;;;;;;;;;;;;;;;2217154;59;1983;-69
2022/02/09 10:35:15;;;;;;;;;;;;;;;;;;2224002;59;1384;-71
2022/02/09 10:37:48;;;;;;;;;;;;;;;;;;2215215;59;1600;-69
2022/02/09 10:40:32;;;;;;;;;;;;;;;;;;2226834;66;1226;-69
2022/02/09 10:43:06;;;;;;;;;;;;;;;;;;2221475;59;1950;-69
2022/02/09 10:45:48;;;;;;;;;;;;;;;;;;2220331;59;1236;-70
2022/02/09 10:48:34;;;;;;;;;;;;;;;;;;2221290;59;1627;-70
2022/02/09 10:51:27;;;;;;;;;;;;;;;;;;2221752;66;1182;-70
2022/02/09 10:54:05;;;;;;;;;;;;;;;;;;2214013;59;1908;-70
2022/02/09 10:56:39;;;;;;;;;;;;;;;;;;2213220;66;1150;-69
2022/02/09 10:59:12;;;;;;;;;;;;;;;;;;2215309;58;1512;-70
2022/02/09 11:01:45;;;;;;;;;;;;;;;;;;2217961;59;1930;-70
2022/02/09 11:04:19;;;;;;;;;;;;;;;;;;2215453;59;1858;-70
2022/02/09 11:06:55;;;;;;;;;;;;;;;;;;2216316;66;1079;-69
2022/02/09 11:09:29;;;;;;;;;;;;;;;;;;2214726;59;3025;-70
2022/02/09 11:12:02;;;;;;;;;;;;;;;;;;2219927;59;1838;-69
2022/02/09 11:14:35;;;;;;;;;;;;;;;;;;2215497;66;1284;-70
2022/02/09 11:17:08;;;;;;;;;;;;;;;;;;2213416;59;1477;-69
2022/02/09 11:19:45;;;;;;;;;;;;;;;;;;2212764;58;1496;-69
2022/02/09 11:22:24;;;;;;;;;;;;;;;;;;2215368;59;1936;-69
2022/02/09 11:25:11;;;;;;;;;;;;;;;;;;2226793;59;1270;-69
2022/02/09 11:27:51;;;;;;;;;;;;;;;;;;2216764;66;1233;-70
2022/02/09 11:30:35;;;;;;;;;;;;;;;;;;2220579;58;1223;-69
2022/02/09 11:33:21;;;;;;;;;;;;;;;;;;2220753;59;1298;-70
2022/02/09 11:36:18;;;;;;;;;;;;;;;;;;2220918;59;1348;-69
2022/02/09 11:38:59;;;;;;;;;;;;;;;;;;2220484;59;1558;-69
2022/02/09 11:41:37;;;;;;;;;;;;;;;;;;2216073;59;2001;-69
2022/02/09 11:44:30;;;;;;;;;;;;;;;;;;2217273;59;1259;-69
2022/02/09 11:47:22;;;;;;;;;;;;;;;;;;2213406;66;1100;-69
2022/02/09 11:50:32;;;;;;;;;;;;;;;;;;2226931;59;1890;-70
2022/02/09 11:59:36;;;;;;;;;;;;;;;;;;2214933;58;1968;-70
2022/02/09 12:11:11;;;;;;;;;;;;;;;;;;2211240;59;2097;-69
2022/02/09 12:13:53;;;;;;;;;;;;;;;;;;2216993;59;1767;-70
2022/02/09 12:16:43;;;;;;;;;;;;;;;;;;2212435;59;1231;-70
2022/02/09 12:19:26;;;;;;;;;;;;;;;;;;2219816;59;1577;-69
2022/02/09 12:22:05;;;;;;;;;;;;;;;;;;2218612;59;1932;-69
2022/02/09 12:24:38;;;;;;;;;;;;;;;;;;2224652;59;1200;-69
2022/02/09 12:27:15;;;;;;;;;;;;;;;;;;2221211;58;1157;-69
2022/02/09 12:29:49;;;;;;;;;;;;;;;;;;2221103;59;1327;-69
2022/02/09 12:32:26;;;;;;;;;;;;;;;;;;2222344;66;1236;-69
2022/02/09 12:35:00;;;;;;;;;;;;;;;;;;2224090;58;1190;-69
2022/02/09 12:37:34;;;;;;;;;;;;;;;;;;2218375;58;1232;-69
2022/02/09 12:40:09;;;;;;;;;;;;;;;;;;2215319;59;1476;-69
2022/02/09 12:42:46;;;;;;;;;;;;;;;;;;2213081;59;1936;-69
2022/02/09 12:45:20;;;;;;;;;;;;;;;;;;2221749;58;1214;-69
2022/02/09 12:47:54;;;;;;;;;;;;;;;;;;2217767;58;1206;-69
2022/02/09 12:50:30;;;;;;;;;;;;;;;;;;2218102;59;1266;-69
2022/02/09 12:53:04;;;;;;;;;;;;;;;;;;2217612;66;1120;-70
2022/02/09 12:55:39;;;;;;;;;;;;;;;;;;2217838;59;1137;-69
2022/02/09 12:58:15;;;;;;;;;;;;;;;;;;2213371;59;1565;-70
2022/02/09 13:00:48;;;;;;;;;;;;;;;;;;2212664;59;1112;-70
2022/02/09 13:03:23;;;;;;;;;;;;;;;;;;2219230;66;1925;-70
2022/02/09 13:05:57;;;;;;;;;;;;;;;;;;2216076;66;1198;-70
2022/02/09 13:08:31;;;;;;;;;;;;;;;;;;2216660;66;1239;-69
2022/02/09 13:11:16;;;;;;;;;;;;;;;;;;2212292;59;1169;-69
2022/02/09 13:13:57;;;;;;;;;;;;;;;;;;2221980;66;1260;-69
2022/02/09 13:16:56;;;;;;;;;;;;;;;;;;2218566;59;1357;-70
2022/02/09 13:52:15;;;;;;;;;;;;;;;;;;2204595;58;1157;-70
2022/02/09 14:12:49;;;;;;;;;;;;;;;;;;2209104;58;1513;-70
2022/02/09 14:15:50;;;;;;;;;;;;;;;;;;2218387;66;1242;-71
2022/02/09 14:18:47;;;;;;;;;;;;;;;;;;2219244;58;1789;-70
2022/02/09 14:52:44;;;;;;;;;;;;;;;;;;2219410;58;1169;-70
2022/02/09 14:55:46;;;;;;;;;;;;;;;;;;2219974;66;1131;-70
2022/02/09 14:58:24;;;;;;;;;;;;;;;;;;2218752;58;1627;-70
2022/02/09 15:01:06;;;;;;;;;;;;;;;;;;2219430;59;1578;-70
2022/02/09 15:09:19;;;;;;;;;;;;;;;;;;2223977;58;2000;-70
2022/02/09 15:11:59;;;;;;;;;;;;;;;;;;2220973;66;1278;-70
2022/02/09 15:14:47;;;;;;;;;;;;;;;;;;2223479;66;1149;-70
2022/02/09 15:17:39;;;;;;;;;;;;;;;;;;2221382;58;1377;-70
2022/02/09 15:20:37;;;;;;;;;;;;;;;;;;2220681;58;1942;-70
2022/02/09 15:23:09;;;;;;;;;;;;;;;;;;2218629;58;1306;-70
2022/02/09 15:25:42;;;;;;;;;;;;;;;;;;2217127;66;1726;-70
2022/02/09 15:28:16;;;;;;;;;;;;;;;;;;2218161;58;1933;-70
2022/02/09 15:31:01;;;;;;;;;;;;;;;;;;2216052;59;1383;-70
2022/02/09 15:33:42;;;;;;;;;;;;;;;;;;2217390;59;1709;-70
2022/02/09 15:36:19;;;;;;;;;;;;;;;;;;2216570;59;1809;-70
2022/02/09 15:38:52;;;;;;;;;;;;;;;;;;2213243;58;2329;-69
2022/02/09 15:41:31;;;;;;;;;;;;;;;;;;2218345;58;1645;-70
2022/02/09 15:56:15;;;;;;;;;;;;;;;;;;2219152;66;1132;-70
2022/02/09 15:58:45;;;;;;;;;;;;;;;;;;2216108;59;1766;-70
2022/02/09 16:10:06;;;;;;;;;;;;;;;;;;2219408;66;1394;-70
2022/02/09 16:24:07;;;;;;;;;;;;;;;;;;2217831;58;1298;-69
2022/02/09 16:38:19;;;;;;;;;;;;;;;;;;2217437;58;1648;-70
2022/02/09 16:46:35;;;;;;;;;;;;;;;;;;2218274;59;1215;-71
2022/02/09 16:49:12;;;;;;;;;;;;;;;;;;2215840;59;2507;-71
2022/02/09 16:51:51;;;;;;;;;;;;;;;;;;2215879;59;2764;-71
2022/02/09 16:54:34;;;;;;;;;;;;;;;;;;2220814;59;1225;-71
2022/02/09 17:11:11;;;;;;;;;;;;;;;;;;2221157;59;1915;-71
2022/02/09 17:19:56;;;;;;;;;;;;;;;;;;2215861;58;1765;-71
2022/02/09 17:22:30;;;;;;;;;;;;;;;;;;2216485;58;1559;-71
2022/02/09 17:25:03;;;;;;;;;;;;;;;;;;2214988;59;1206;-71
2022/02/09 17:27:36;;;;;;;;;;;;;;;;;;2220538;59;1991;-71
2022/02/09 17:30:49;;;;;;;;;;;;;;;;;;2216354;66;1282;-71
2022/02/09 17:33:37;;;;;;;;;;;;;;;;;;2214779;66;1175;-71
2022/02/09 17:36:18;;;;;;;;;;;;;;;;;;2215333;66;1073;-71
2022/02/09 17:38:57;;;;;;;;;;;;;;;;;;2216955;58;1753;-71
2022/02/09 17:58:45;;;;;;;;;;;;;;;;;;2216298;59;1676;-71
2022/02/09 18:01:19;;;;;;;;;;;;;;;;;;2219822;66;1106;-71
2022/02/09 18:03:55;;;;;;;;;;;;;;;;;;2217026;66;1339;-71
2022/02/09 18:06:32;;;;;;;;;;;;;;;;;;2215441;59;1668;-71
2022/02/09 18:09:09;;;;;;;;;;;;;;;;;;2216133;59;1941;-71
2022/02/09 18:11:55;;;;;;;;;;;;;;;;;;2218505;66;1116;-71
2022/02/09 18:14:58;;;;;;;;;;;;;;;;;;2216899;59;1203;-70
2022/02/09 18:29:06;;;;;;;;;;;;;;;;;;2217751;66;1935;-71
2022/02/09 18:31:54;;;;;;;;;;;;;;;;;;2217843;59;1258;-71
2022/02/09 18:34:57;;;;;;;;;;;;;;;;;;2215166;58;1742;-71
2022/02/09 18:43:25;;;;;;;;;;;;;;;;;;2216681;66;1137;-71
2022/02/09 18:46:05;;;;;;;;;;;;;;;;;;2217080;59;1162;-71
2022/02/09 18:49:07;;;;;;;;;;;;;;;;;;2215845;59;1988;-70
2022/02/09 19:00:35;;;;;;;;;;;;;;;;;;2214197;59;1821;-71
2022/02/09 19:03:24;;;;;;;;;;;;;;;;;;2215045;58;1256;-70
2022/02/09 19:06:01;;;;;;;;;;;;;;;;;;2216053;66;1139;-71
2022/02/09 19:08:51;;;;;;;;;;;;;;;;;;2214113;59;2001;-70
2022/02/09 19:14:25;;;;;;;;;;;;;;;;;;2212772;66;1173;-70
2022/02/09 19:17:10;;;;;;;;;;;;;;;;;;2222503;59;1287;-71
2022/02/09 19:19:59;;;;;;;;;;;;;;;;;;2218299;59;1525;-71
2022/02/09 19:31:25;;;;;;;;;;;;;;;;;;2202636;59;1141;-70
2022/02/09 19:48:19;;;;;;;;;;;;;;;;;;2206704;59;1941;-71
2022/02/09 19:51:07;;;;;;;;;;;;;;;;;;2220971;66;1124;-70
2022/02/09 19:53:45;;;;;;;;;;;;;;;;;;2218953;66;1083;-71
2022/02/09 19:56:22;;;;;;;;;;;;;;;;;;2220329;66;1087;-70
2022/02/09 19:58:59;;;;;;;;;;;;;;;;;;2219463;59;1699;-71
2022/02/09 20:01:36;;;;;;;;;;;;;;;;;;2219328;59;1216;-70
2022/02/09 20:04:10;;;;;;;;;;;;;;;;;;2219171;66;1187;-71
2022/02/09 20:06:43;;;;;;;;;;;;;;;;;;2219651;66;1217;-71
2022/02/09 20:09:18;;;;;;;;;;;;;;;;;;2219541;59;1941;-70
2022/02/09 20:11:51;;;;;;;;;;;;;;;;;;2223246;66;1463;-71
2022/02/09 20:14:26;;;;;;;;;;;;;;;;;;2220014;59;1317;-71
2022/02/09 20:17:02;;;;;;;;;;;;;;;;;;2221628;58;1510;-71
2022/02/09 20:19:35;;;;;;;;;;;;;;;;;;2215256;59;1711;-71
2022/02/09 20:22:09;;;;;;;;;;;;;;;;;;2222681;58;1701;-71
2022/02/09 20:24:42;;;;;;;;;;;;;;;;;;2218820;58;1600;-71
2022/02/09 20:27:19;;;;;;;;;;;;;;;;;;2221971;66;1143;-70
2022/02/09 20:29:53;;;;;;;;;;;;;;;;;;2216318;59;1938;-71
2022/02/09 20:32:33;;;;;;;;;;;;;;;;;;2221565;66;1108;-71
2022/02/09 20:35:10;;;;;;;;;;;;;;;;;;2221830;66;1117;-71
2022/02/09 20:37:48;;;;;;;;;;;;;;;;;;2216723;66;1272;-70
2022/02/09 20:40:24;;;;;;;;;;;;;;;;;;2216927;59;2356;-71
2022/02/09 20:42:59;;;;;;;;;;;;;;;;;;2216085;58;1110;-71
2022/02/09 20:45:36;;;;;;;;;;;;;;;;;;2218637;58;1155;-71
2022/02/09 20:48:15;;;;;;;;;;;;;;;;;;2217867;59;1365;-71
2022/02/09 20:50:48;;;;;;;;;;;;;;;;;;2218113;66;1108;-71
2022/02/09 20:53:22;;;;;;;;;;;;;;;;;;2218261;59;1220;-71
2022/02/09 20:55:55;;;;;;;;;;;;;;;;;;2217598;66;1098;-71
2022/02/09 20:58:33;;;;;;;;;;;;;;;;;;2215090;59;1532;-70
2022/02/09 21:01:10;;;;;;;;;;;;;;;;;;2220844;59;1463;-71
2022/02/09 21:03:52;;;;;;;;;;;;;;;;;;2217447;59;1131;-71
2022/02/09 21:06:35;;;;;;;;;;;;;;;;;;2216415;66;1253;-71
2022/02/09 21:09:20;;;;;;;;;;;;;;;;;;2219195;59;1926;-70
2022/02/09 21:12:03;;;;;;;;;;;;;;;;;;2218444;59;1310;-70
2022/02/09 21:15:00;;;;;;;;;;;;;;;;;;2217490;66;1243;-71
2022/02/09 21:17:58;;;;;;;;;;;;;;;;;;2215524;58;1811;-70
2022/02/09 21:20:52;;;;;;;;;;;;;;;;;;2217505;64;1497;-71
2022/02/09 21:23:43;;;;;;;;;;;;;;;;;;2217572;59;1265;-70
2022/02/09 21:26:45;;;;;;;;;;;;;;;;;;2218591;66;1104;-71
2022/02/09 21:49:47;;;;;;;;;;;;;;;;;;2212016;59;1937;-70
2022/02/09 21:55:17;;;;;;;;;;;;;;;;;;2213419;66;1140;-70
2022/02/09 21:58:00;;;;;;;;;;;;;;;;;;2216083;59;1577;-70
2022/02/09 22:00:44;;;;;;;;;;;;;;;;;;2218007;66;1118;-70
2022/02/09 22:06:27;;;;;;;;;;;;;;;;;;2216603;66;973;-70
2022/02/09 22:20:24;;;;;;;;;;;;;;;;;;2215925;58;2743;-70
2022/02/09 22:23:20;;;;;;;;;;;;;;;;;;2216110;59;1234;-70
2022/02/09 22:29:08;;;;;;;;;;;;;;;;;;2204628;59;1928;-70
2022/02/09 22:31:54;;;;;;;;;;;;;;;;;;2205149;67;1123;-70
2022/02/09 22:45:24;;;;;;;;;;;;;;;;;;2213179;59;1287;-69
2022/02/09 22:46:46;;;;;;;;;;;;;;;;;;2217074;66;1243;-70
2022/02/09 22:49:18;;;;;;;;;;;;;;;;;;2215975;59;1976;-70
2022/02/09 22:54:44;;;;;;;;;;;;;;;;;;2218116;58;1125;-70
2022/02/09 22:57:23;;;;;;;;;;;;;;;;;;2220275;59;1238;-70
2022/02/09 23:00:05;;;;;;;;;;;;;;;;;;2217631;59;1860;-70
2022/02/09 23:02:46;;;;;;;;;;;;;;;;;;2217918;58;2529;-69
2022/02/09 23:05:43;;;;;;;;;;;;;;;;;;2217365;66;1158;-70
2022/02/09 23:11:21;;;;;;;;;;;;;;;;;;2216074;59;1930;-69
2022/02/09 23:14:01;;;;;;;;;;;;;;;;;;2216576;66;1200;-69
2022/02/09 23:16:56;;;;;;;;;;;;;;;;;;2219186;58;1339;-69
2022/02/09 23:28:51;;;;;;;;;;;;;;;;;;2218737;66;1149;-69
